Time;durP1;ratioP1;P1;durP2;ratioP2;P2;SDS_P1;SDS_P2;PMS_P1;PMS_P2;Temp;Humidity;BMP_temperature;BMP_pressure;BME280_temperature;BME280_humidity;BME280_pressure;Samples;Min_cycle;Max_cycle;Signal;HPM_P1;HPM_P2
2022/09/04 00:02:15;;;;;;;1.15;0.90;;;;;;;13.84;100.00;100323.31;6298789;28;20076;-72
2022/09/04 00:05:21;;;;;;;2.85;1.23;;;;;;;13.81;100.00;100318.28;6288214;28;20057;-72
2022/09/04 00:08:40;;;;;;;1.33;1.10;;;;;;;13.79;100.00;100319.34;6294421;28;20040;-71
2022/09/04 00:11:51;;;;;;;1.30;1.13;;;;;;;13.78;100.00;100329.00;6295545;28;20041;-72
2022/09/04 00:15:21;;;;;;;1.20;1.10;;;;;;;13.76;100.00;100330.06;6295613;28;20044;-72
2022/09/04 00:19:01;;;;;;;2.85;1.38;;;;;;;13.77;100.00;100340.44;6293131;28;20078;-72
2022/09/04 00:22:34;;;;;;;1.35;1.15;;;;;;;13.74;100.00;100330.16;6312988;28;20040;-71
2022/09/04 00:25:51;;;;;;;1.83;1.20;;;;;;;13.73;100.00;100343.38;6315180;28;20056;-72
2022/09/04 00:29:02;;;;;;;1.90;1.27;;;;;;;13.67;100.00;100340.25;6319068;28;20036;-71
2022/09/04 00:32:20;;;;;;;1.45;1.10;;;;;;;13.65;100.00;100349.16;6320452;28;20040;-71
2022/09/04 00:35:33;;;;;;;1.23;1.13;;;;;;;13.63;100.00;100349.28;6319247;28;20404;-71
2022/09/04 00:38:43;;;;;;;1.05;0.88;;;;;;;13.53;100.00;100358.72;6319174;28;20067;-72
2022/09/04 00:42:21;;;;;;;1.20;1.00;;;;;;;13.49;100.00;100354.63;6319077;28;20036;-71
2022/09/04 00:45:37;;;;;;;0.82;0.75;;;;;;;13.37;100.00;100348.44;6301535;28;20052;-72
2022/09/04 00:49:16;;;;;;;1.40;1.00;;;;;;;13.35;100.00;100347.69;6320221;28;20377;-72
2022/09/04 00:52:31;;;;;;;1.40;1.08;;;;;;;13.35;100.00;100359.97;6320217;28;20043;-72
2022/09/04 00:55:41;;;;;;;1.33;1.10;;;;;;;13.35;100.00;100354.72;6320068;28;20096;-72
2022/09/04 00:59:21;;;;;;;1.48;1.10;;;;;;;13.32;100.00;100354.91;6318964;28;20048;-71
2022/09/04 01:03:03;;;;;;;1.30;0.90;;;;;;;13.26;100.00;100358.75;6318909;28;20044;-71
2022/09/04 01:06:31;;;;;;;2.05;1.15;;;;;;;13.19;100.00;100355.72;6314152;28;20188;-71
2022/09/04 01:09:57;;;;;;;1.05;0.93;;;;;;;13.12;100.00;100357.06;6319227;28;20048;-72
2022/09/04 01:13:07;;;;;;;1.88;1.00;;;;;;;13.07;100.00;100357.38;6336427;28;20052;-71
2022/09/04 01:16:23;;;;;;;0.63;0.63;;;;;;;13.07;100.00;100357.38;6320613;28;20044;-72
2022/09/04 01:19:46;;;;;;;1.35;1.10;;;;;;;13.09;100.00;100355.50;6319759;28;20513;-72
2022/09/04 01:23:17;;;;;;;0.85;0.80;;;;;;;13.13;100.00;100356.13;6320220;28;20079;-72
2022/09/04 01:26:34;;;;;;;1.40;0.82;;;;;;;12.96;100.00;100356.41;6320653;28;20052;-72
2022/09/04 01:30:04;;;;;;;2.25;1.10;;;;;;;13.00;100.00;100350.88;6319316;28;20396;-72
2022/09/04 01:33:05;;;;;;;1.23;1.00;;;;;;;13.04;100.00;100362.81;6318751;28;20040;-71
2022/09/04 01:36:15;;;;;;;1.67;1.35;;;;;;;13.02;100.00;100358.63;6319641;28;20101;-71
2022/09/04 01:39:21;;;;;;;1.10;0.93;;;;;;;13.06;100.00;100360.94;6318450;28;20050;-71
2022/09/04 01:42:39;;;;;;;1.67;0.98;;;;;;;13.04;100.00;100362.00;6319740;28;20040;-72
2022/09/04 01:45:54;;;;;;;1.38;1.00;;;;;;;13.03;100.00;100362.91;6319528;28;20048;-71
2022/09/04 01:49:19;;;;;;;1.13;1.05;;;;;;;12.99;100.00;100351.81;6319727;28;20042;-71
2022/09/04 01:52:43;;;;;;;0.85;0.85;;;;;;;12.96;100.00;100349.38;6319214;28;20488;-72
2022/09/04 01:56:06;;;;;;;2.28;1.13;;;;;;;12.92;100.00;100349.69;6282680;28;20102;-71
2022/09/04 01:59:31;;;;;;;1.80;1.15;;;;;;;12.88;100.00;100354.28;6324932;28;20046;-72
2022/09/04 02:02:52;;;;;;;1.63;1.00;;;;;;;12.86;100.00;100357.00;6323400;28;20060;-72
2022/09/04 02:06:07;;;;;;;1.08;0.98;;;;;;;12.87;100.00;100352.63;6323507;28;20044;-71
2022/09/04 02:09:45;;;;;;;1.40;1.30;;;;;;;12.73;100.00;100350.06;6323462;28;20043;-71
2022/09/04 02:13:13;;;;;;;1.20;1.08;;;;;;;12.75;100.00;100353.44;6324557;28;20071;-72
2022/09/04 02:16:29;;;;;;;1.33;1.08;;;;;;;12.67;100.00;100360.00;6324595;28;20621;-72
2022/09/04 02:19:38;;;;;;;1.20;0.95;;;;;;;12.69;100.00;100352.03;6324315;28;20048;-72
2022/09/04 02:22:48;;;;;;;1.60;1.20;;;;;;;12.75;100.00;100356.06;6322929;28;20051;-72
2022/09/04 02:26:15;;;;;;;1.08;0.95;;;;;;;12.75;100.00;100356.06;6322834;28;20261;-72
2022/09/04 02:29:30;;;;;;;1.45;1.27;;;;;;;12.76;100.00;100360.34;6323995;28;20040;-72
2022/09/04 02:32:59;;;;;;;4.03;1.63;;;;;;;12.73;100.00;100356.16;6324052;28;20055;-72
2022/09/04 02:36:18;;;;;;;4.35;1.25;;;;;;;12.70;100.00;100351.97;6322542;28;20565;-72
2022/09/04 02:39:40;;;;;;;1.77;0.88;;;;;;;12.72;100.00;100359.69;6322671;28;20392;-72
2022/09/04 02:42:47;;;;;;;1.00;0.93;;;;;;;12.70;100.00;100359.81;6322494;28;20181;-72
2022/09/04 02:46:13;;;;;;;2.92;1.20;;;;;;;12.72;100.00;100358.84;6322567;28;20118;-72
2022/09/04 02:49:33;;;;;;;3.70;1.63;;;;;;;12.68;100.00;100348.59;6322475;28;20076;-72
2022/09/04 02:53:00;;;;;;;2.22;1.30;;;;;;;12.68;100.00;100350.34;6323524;28;20040;-71
2022/09/04 02:56:33;;;;;;;1.30;1.10;;;;;;;12.73;100.00;100358.75;6303862;28;20055;-72
2022/09/04 02:59:49;;;;;;;1.45;1.13;;;;;;;12.74;100.00;100352.56;6294142;28;20052;-72
2022/09/04 03:03:31;;;;;;;7.35;1.38;;;;;;;12.61;100.00;100355.16;6305923;28;20135;-72
2022/09/04 03:06:55;;;;;;;1.42;1.17;;;;;;;12.59;100.00;100351.78;6290807;28;20079;-71
2022/09/04 03:09:58;;;;;;;1.40;1.10;;;;;;;12.58;100.00;100350.13;6323089;28;20048;-71
2022/09/04 03:13:29;;;;;;;2.13;1.17;;;;;;;12.63;100.00;100355.91;6321410;28;20098;-71
2022/09/04 03:16:55;;;;;;;1.17;1.08;;;;;;;12.60;100.00;100347.41;6310462;28;20036;-71
2022/09/04 03:20:13;;;;;;;1.20;1.10;;;;;;;12.60;100.00;100363.09;6296889;28;20059;-72
2022/09/04 03:23:17;;;;;;;1.27;1.02;;;;;;;12.56;100.00;100362.47;6310989;28;20369;-73
2022/09/04 03:26:23;;;;;;;0.70;0.70;;;;;;;12.50;100.00;100368.09;6322878;28;20036;-73
2022/09/04 03:29:50;;;;;;;0.70;0.60;;;;;;;12.44;100.00;100364.09;6321492;28;20146;-73
2022/09/04 03:33:11;;;;;;;2.10;0.95;;;;;;;12.44;100.00;100368.50;6321663;28;20384;-73
2022/09/04 03:36:24;;;;;;;0.68;0.60;;;;;;;12.43;100.00;100369.41;6321339;28;20480;-73
2022/09/04 03:40:02;;;;;;;0.65;0.55;;;;;;;12.43;100.00;100372.88;6321680;28;20121;-73
2022/09/04 03:43:45;;;;;;;0.60;0.60;;;;;;;12.44;100.00;100373.72;6321397;28;20055;-72
2022/09/04 03:46:54;;;;;;;0.63;0.57;;;;;;;12.38;100.00;100367.09;6320997;28;20461;-73
2022/09/04 03:50:16;;;;;;;0.35;0.35;;;;;;;12.38;100.00;100368.88;6338153;28;20051;-73
2022/09/04 03:53:34;;;;;;;0.60;0.57;;;;;;;12.33;100.00;100370.94;6338146;28;20059;-74
2022/09/04 03:56:45;;;;;;;3.03;0.82;;;;;;;12.37;100.00;100368.03;6320926;28;20281;-73
2022/09/04 04:00:03;;;;;;;0.60;0.60;;;;;;;12.37;100.00;100375.88;6322258;28;20468;-73
2022/09/04 04:03:23;;;;;;;1.00;0.90;;;;;;;12.39;100.00;100368.78;6322279;28;20039;-73
2022/09/04 04:07:00;;;;;;;1.35;0.80;;;;;;;12.44;100.00;100379.81;6321057;28;20048;-73
2022/09/04 04:10:18;;;;;;;0.50;0.50;;;;;;;12.46;100.00;100379.72;6320895;28;20048;-73
2022/09/04 04:13:53;;;;;;;0.52;0.52;;;;;;;12.54;100.00;100380.06;6320719;28;20099;-73
2022/09/04 04:17:19;;;;;;;0.88;0.57;;;;;;;12.61;100.00;100377.88;6321848;28;20119;-74
2022/09/04 04:20:51;;;;;;;1.00;0.90;;;;;;;12.65;100.00;100390.66;6320142;28;20048;-73
2022/09/04 04:24:01;;;;;;;1.80;0.60;;;;;;;12.72;100.00;100388.50;6321839;28;20376;-73
2022/09/04 04:27:38;;;;;;;0.82;0.80;;;;;;;12.80;100.00;100385.38;6320578;28;20060;-74
2022/09/04 04:30:53;;;;;;;2.40;0.80;;;;;;;12.85;100.00;100391.16;6321740;28;20377;-73
2022/09/04 04:34:08;;;;;;;1.33;0.82;;;;;;;12.93;100.00;100391.50;6320510;28;20040;-74
2022/09/04 04:37:20;;;;;;;0.60;0.60;;;;;;;12.94;100.00;100394.97;6303327;28;20119;-73
2022/09/04 04:40:23;;;;;;;1.58;0.85;;;;;;;12.99;100.00;100396.34;6321474;28;20052;-74
2022/09/04 04:44:01;;;;;;;0.70;0.70;;;;;;;13.06;100.00;100399.41;6321368;28;20050;-73
2022/09/04 04:47:50;;;;;;;0.98;0.88;;;;;;;13.08;100.00;100408.81;6321740;28;20123;-73
2022/09/04 04:51:16;;;;;;;0.63;0.52;;;;;;;13.10;100.00;100404.31;6318067;28;20072;-73
2022/09/04 04:54:22;;;;;;;1.27;1.10;;;;;;;13.09;100.00;100405.28;6319991;28;20416;-74
2022/09/04 04:57:34;;;;;;;2.55;0.80;;;;;;;13.07;100.00;100407.16;6319802;28;20051;-73
2022/09/04 05:00:49;;;;;;;1.48;0.80;;;;;;;13.14;100.00;100411.97;6296114;28;20044;-73
2022/09/04 05:04:19;;;;;;;1.77;0.82;;;;;;;13.16;100.00;100413.56;6293216;28;20500;-74
2022/09/04 05:07:52;;;;;;;0.50;0.50;;;;;;;13.18;100.00;100409.06;6320113;28;20123;-73
2022/09/04 05:10:59;;;;;;;0.95;0.88;;;;;;;13.29;100.00;100418.88;6320505;28;20032;-74
2022/09/04 05:14:30;;;;;;;0.80;0.80;;;;;;;13.36;100.00;100421.91;6321136;28;20452;-73
2022/09/04 05:17:43;;;;;;;0.73;0.70;;;;;;;13.45;100.00;100427.38;6320793;28;20040;-74
2022/09/04 05:20:57;;;;;;;0.95;0.85;;;;;;;13.52;100.00;100426.97;6321104;28;20040;-73
2022/09/04 05:24:12;;;;;;;1.20;1.08;;;;;;;13.53;100.00;100424.25;6320843;28;20047;-74
2022/09/04 05:27:18;;;;;;;2.55;0.60;;;;;;;13.46;100.00;100429.03;6319674;28;20040;-72
2022/09/04 05:30:38;;;;;;;1.13;0.77;;;;;;;13.64;100.00;100440.09;6322391;28;20054;-72
2022/09/04 05:34:03;;;;;;;1.83;0.73;;;;;;;13.72;100.00;100443.97;6324350;28;20427;-72
2022/09/04 05:37:34;;;;;;;2.05;0.98;;;;;;;13.79;100.00;100451.31;6307151;28;20121;-71
2022/09/04 05:41:04;;;;;;;1.05;0.90;;;;;;;13.93;100.00;100457.41;6310721;28;20068;-72
2022/09/04 05:44:14;;;;;;;8.40;1.35;;;;;;;14.08;100.00;100454.56;6298912;28;20470;-72
2022/09/04 05:47:28;;;;;;;0.88;0.73;;;;;;;14.24;100.00;100462.19;6298787;28;20048;-72
2022/09/04 05:50:59;;;;;;;1.13;1.00;;;;;;;14.30;100.00;100456.53;6299783;28;20048;-71
2022/09/04 05:54:08;;;;;;;1.00;0.70;;;;;;;14.32;100.00;100459.03;6299680;28;20413;-72
2022/09/04 05:57:32;;;;;;;0.60;0.60;;;;;;;14.47;100.00;100459.75;6298146;28;20041;-71
2022/09/04 06:01:06;;;;;;;0.80;0.80;;;;;;;14.62;100.00;100466.59;6299444;28;20127;-71
2022/09/04 06:04:43;;;;;;;0.93;0.75;;;;;;;14.85;100.00;100449.16;6299390;28;20044;-72
2022/09/04 06:07:53;;;;;;;1.20;1.00;;;;;;;15.09;100.00;100456.19;6294080;28;20448;-71
2022/09/04 06:11:24;;;;;;;1.48;1.20;;;;;;;15.34;100.00;100459.63;6323445;28;20047;-71
2022/09/04 06:14:42;;;;;;;0.73;0.73;;;;;;;15.52;100.00;100459.13;6324694;28;20098;-72
2022/09/04 06:18:06;;;;;;;1.10;0.88;;;;;;;15.64;100.00;100472.28;6323204;28;20067;-72
2022/09/04 06:21:15;;;;;;;1.98;1.15;;;;;;;15.81;100.00;100466.59;6323924;28;20067;-72
2022/09/04 06:24:24;;;;;;;0.88;0.82;;;;;;;15.87;100.00;100465.28;6323008;28;20081;-73
2022/09/04 06:27:44;;;;;;;3.08;1.20;;;;;;;15.98;100.00;100464.47;6323142;28;20044;-71
2022/09/04 06:31:05;;;;;;;1.25;0.98;;;;;;;15.95;100.00;100473.44;6323995;28;20063;-71
2022/09/04 06:34:31;;;;;;;2.05;0.88;;;;;;;16.16;100.00;100478.00;6324227;28;20055;-73
2022/09/04 06:37:50;;;;;;;1.95;0.98;;;;;;;16.36;100.00;100486.97;6323572;28;20055;-72
2022/09/04 06:41:20;;;;;;;1.27;0.93;;;;;;;16.51;100.00;100488.41;6321994;28;20970;-74
2022/09/04 06:44:45;;;;;;;1.10;1.00;;;;;;;16.65;100.00;100485.50;6295931;28;20073;-73
2022/09/04 06:48:12;;;;;;;1.25;0.88;;;;;;;16.80;100.00;100485.25;6305615;28;20056;-73
2022/09/04 06:51:25;;;;;;;1.30;1.20;;;;;;;16.86;100.00;100493.53;6323751;28;20040;-72
2022/09/04 06:54:48;;;;;;;1.35;1.13;;;;;;;17.10;100.00;100495.13;6322632;28;20040;-72
2022/09/04 06:57:58;;;;;;;1.10;1.00;;;;;;;17.29;100.00;100497.09;6322105;28;20042;-72
2022/09/04 07:01:10;;;;;;;1.05;0.90;;;;;;;17.53;100.00;100494.25;6323476;28;20055;-73
2022/09/04 07:04:19;;;;;;;1.33;1.20;;;;;;;17.83;100.00;100497.94;6323339;28;20420;-73
2022/09/04 07:07:54;;;;;;;1.60;0.80;;;;;;;17.96;100.00;100492.47;6323467;28;20484;-73
2022/09/04 07:11:23;;;;;;;1.73;1.05;;;;;;;18.08;100.00;100496.72;6323052;28;20048;-71
2022/09/04 07:14:46;;;;;;;1.00;0.90;;;;;;;18.45;100.00;100499.66;6321876;28;20047;-72
2022/09/04 07:18:03;;;;;;;1.00;0.82;;;;;;;18.53;100.00;100506.88;6321705;28;20062;-72
2022/09/04 07:21:21;;;;;;;1.42;1.15;;;;;;;18.63;100.00;100494.53;6321541;28;20044;-74
2022/09/04 07:24:25;;;;;;;1.20;1.10;;;;;;;19.11;100.00;100501.78;6321794;28;20140;-74
2022/09/04 07:27:35;;;;;;;1.10;0.90;;;;;;;19.03;100.00;100506.09;6322695;28;20071;-72
2022/09/04 07:30:43;;;;;;;1.33;0.88;;;;;;;19.22;100.00;100497.31;6322663;28;20169;-71
2022/09/04 07:33:46;;;;;;;1.17;1.08;;;;;;;19.34;100.00;100498.84;6321005;28;20041;-72
2022/09/04 07:36:56;;;;;;;0.90;0.80;;;;;;;19.37;100.00;100497.72;6312551;28;20059;-72
2022/09/04 07:40:15;;;;;;;0.93;0.77;;;;;;;19.84;99.07;100501.31;6319967;28;20420;-72
2022/09/04 07:43:34;;;;;;;0.70;0.70;;;;;;;19.83;97.80;100497.03;6322441;28;20420;-74
2022/09/04 07:47:00;;;;;;;1.30;0.80;;;;;;;19.79;93.37;100497.44;6321376;28;20067;-74
2022/09/04 07:50:24;;;;;;;1.33;0.65;;;;;;;19.83;95.24;100504.97;6321247;28;20425;-71
2022/09/04 07:53:49;;;;;;;0.65;0.50;;;;;;;20.45;91.23;100512.44;6322172;28;20404;-74
2022/09/04 07:57:09;;;;;;;0.40;0.40;;;;;;;20.39;87.76;100520.97;6321925;28;20043;-74
2022/09/04 08:00:16;;;;;;;0.80;0.50;;;;;;;20.57;84.96;100513.06;6320840;28;20123;-74
2022/09/04 08:03:27;;;;;;;0.55;0.50;;;;;;;21.28;84.42;100515.84;6322018;28;20169;-72
2022/09/04 08:06:37;;;;;;;0.65;0.50;;;;;;;21.22;81.35;100519.09;6321898;28;20079;-74
2022/09/04 08:09:58;;;;;;;1.25;0.75;;;;;;;21.11;84.12;100517.50;6316988;28;20134;-74
2022/09/04 08:13:02;;;;;;;0.43;0.43;;;;;;;21.40;82.42;100531.56;6306266;28;20128;-74
2022/09/04 08:16:11;;;;;;;0.50;0.50;;;;;;;21.44;80.18;100525.00;6309111;28;20504;-72
2022/09/04 08:19:27;;;;;;;0.50;0.50;;;;;;;21.53;78.76;100516.09;6299152;28;20055;-72
2022/09/04 08:22:42;;;;;;;0.28;0.28;;;;;;;21.56;74.28;100523.75;6295384;28;20101;-74
2022/09/04 08:26:20;;;;;;;1.30;0.60;;;;;;;21.50;73.89;100511.94;6296099;28;20120;-72
2022/09/04 08:29:38;;;;;;;0.45;0.40;;;;;;;21.88;72.39;100536.44;6321523;28;20071;-74
2022/09/04 08:33:17;;;;;;;0.40;0.40;;;;;;;21.79;70.69;100525.94;6321403;28;20080;-74
2022/09/04 08:36:30;;;;;;;0.80;0.65;;;;;;;22.01;73.45;100529.88;6320701;28;20119;-73
2022/09/04 08:40:10;;;;;;;0.50;0.50;;;;;;;22.04;71.55;100537.56;6319904;28;20044;-74
2022/09/04 08:43:32;;;;;;;1.10;0.80;;;;;;;22.21;71.44;100533.16;6321268;28;20123;-74
2022/09/04 08:46:37;;;;;;;1.27;0.82;;;;;;;22.46;70.18;100531.47;6320070;28;20048;-74
2022/09/04 08:50:07;;;;;;;1.10;0.90;;;;;;;22.24;71.10;100532.91;6320868;28;20097;-74
2022/09/04 08:53:32;;;;;;;1.52;0.88;;;;;;;22.32;68.07;100532.91;6318883;28;20094;-74
2022/09/04 08:56:48;;;;;;;0.85;0.70;;;;;;;22.30;69.26;100533.09;6335758;28;20044;-72
2022/09/04 09:00:14;;;;;;;1.10;1.00;;;;;;;22.67;68.66;100531.06;6318740;28;20076;-74
2022/09/04 09:03:42;;;;;;;1.13;1.00;;;;;;;23.01;67.12;100523.06;6320049;28;20072;-74
2022/09/04 09:07:18;;;;;;;0.95;0.88;;;;;;;23.46;65.74;100523.63;6324360;28;20036;-74
2022/09/04 09:10:51;;;;;;;0.70;0.70;;;;;;;23.65;67.52;100515.28;6323631;28;20135;-74
2022/09/04 09:14:04;;;;;;;1.25;1.08;;;;;;;23.66;63.35;100516.97;6323758;28;20075;-74
2022/09/04 09:17:11;;;;;;;1.20;0.90;;;;;;;23.99;65.02;100518.75;6323685;28;20082;-74
2022/09/04 09:20:48;;;;;;;1.25;0.93;;;;;;;24.11;61.74;100514.72;6306515;28;20040;-74
2022/09/04 09:24:26;;;;;;;1.48;0.90;;;;;;;24.22;62.53;100516.22;6323419;28;20048;-74
2022/09/04 09:28:04;;;;;;;1.58;1.15;;;;;;;24.38;61.67;100521.50;6323667;28;20055;-74
2022/09/04 09:31:48;;;;;;;0.77;0.75;;;;;;;24.30;60.27;100519.69;6324614;28;20044;-74
2022/09/04 09:34:53;;;;;;;0.70;0.70;;;;;;;24.20;58.11;100523.56;6323190;28;20055;-74
2022/09/04 09:38:06;;;;;;;1.25;0.98;;;;;;;23.95;56.40;100523.63;6323070;28;20052;-74
2022/09/04 09:41:28;;;;;;;1.83;1.05;;;;;;;23.96;59.09;100527.09;6323060;28;20048;-74
2022/09/04 09:44:37;;;;;;;;;;;;;;;24.59;59.18;100530.78;6324801;28;20529;-74
2022/09/04 09:48:03;;;;;;;1.02;0.93;;;;;;;23.98;60.65;100523.25;6323009;28;20399;-73
2022/09/04 09:51:22;;;;;;;2.95;1.00;;;;;;;23.68;57.45;100514.97;6339593;28;20477;-74
2022/09/04 09:54:31;;;;;;;1.25;0.98;;;;;;;23.80;58.38;100520.78;6305935;28;20055;-74
2022/09/04 09:57:55;;;;;;;2.28;1.00;;;;;;;23.34;61.54;100526.59;6305742;28;20052;-74
2022/09/04 10:01:06;;;;;;;1.92;0.98;;;;;;;23.17;64.62;100522.25;6281666;28;20147;-74
2022/09/04 10:04:38;;;;;;;1.45;1.15;;;;;;;23.10;62.34;100522.09;6305513;28;20569;-75
2022/09/04 10:07:56;;;;;;;1.40;1.10;;;;;;;23.41;64.13;100518.81;6322248;28;20044;-74
2022/09/04 10:11:04;;;;;;;3.45;1.20;;;;;;;24.09;58.36;100512.25;6322353;28;20036;-74
2022/09/04 10:14:42;;;;;;;2.55;1.25;;;;;;;24.65;57.40;100516.75;6305389;28;20132;-75
2022/09/04 10:17:52;;;;;;;0.80;0.80;;;;;;;24.95;54.41;100523.06;6320776;28;20052;-74
2022/09/04 10:21:19;;;;;;;1.42;1.02;;;;;;;25.19;54.85;100519.41;6338917;28;20499;-75
2022/09/04 10:24:44;;;;;;;0.95;0.90;;;;;;;24.83;53.70;100522.66;6323227;28;20090;-72
2022/09/04 10:28:14;;;;;;;1.98;1.10;;;;;;;24.50;55.38;100527.31;6321864;28;20075;-72
2022/09/04 10:31:43;;;;;;;2.05;1.20;;;;;;;24.39;55.56;100520.47;6321748;28;20047;-72
2022/09/04 10:35:08;;;;;;;1.77;1.25;;;;;;;24.45;53.65;100518.97;6319977;28;20467;-72
2022/09/04 10:38:30;;;;;;;1.33;1.00;;;;;;;23.79;56.76;100521.78;6304716;28;20052;-72
2022/09/04 10:41:37;;;;;;;2.75;1.00;;;;;;;23.88;58.00;100523.44;6322797;28;20488;-71
2022/09/04 10:44:50;;;;;;;1.35;1.13;;;;;;;23.54;58.32;100518.28;6321577;28;20044;-72
2022/09/04 10:48:11;;;;;;;1.00;0.90;;;;;;;23.84;60.95;100516.78;6322666;28;20044;-71
2022/09/04 10:51:12;;;;;;;1.52;1.08;;;;;;;23.80;60.40;100518.13;6321383;28;20123;-72
2022/09/04 10:54:57;;;;;;;0.87;0.87;;;;;;;23.97;58.02;100515.44;6322784;28;20035;-72
2022/09/04 10:58:10;;;;;;;2.03;1.17;;;;;;;23.66;56.29;100516.09;6321286;28;20717;-71
2022/09/04 11:01:36;;;;;;;1.25;1.00;;;;;;;23.77;59.24;100513.16;6321009;28;20507;-72
2022/09/04 11:05:07;;;;;;;1.48;1.10;;;;;;;23.61;59.39;100516.63;6321057;28;20104;-72
2022/09/04 11:08:22;;;;;;;1.20;1.10;;;;;;;23.69;61.00;100518.44;6322163;28;20040;-72
2022/09/04 11:11:57;;;;;;;1.20;1.00;;;;;;;23.30;60.30;100519.09;6303980;28;20052;-72
2022/09/04 11:15:13;;;;;;;1.55;1.15;;;;;;;23.38;59.26;100520.94;6320973;28;20075;-72
2022/09/04 11:18:55;;;;;;;1.00;0.90;;;;;;;23.29;60.30;100515.63;6312175;28;20480;-72
2022/09/04 11:21:59;;;;;;;1.63;1.42;;;;;;;23.30;62.27;100508.47;6316696;28;20071;-72
2022/09/04 11:25:21;;;;;;;1.00;0.90;;;;;;;23.29;61.29;100514.81;6320790;28;20418;-71
2022/09/04 11:28:57;;;;;;;0.70;0.70;;;;;;;23.33;60.92;100516.97;6320079;28;20044;-71
2022/09/04 11:32:24;;;;;;;2.33;1.23;;;;;;;23.06;58.33;100509.25;6189345;28;20544;-72
2022/09/04 11:35:50;;;;;;;0.93;0.93;;;;;;;23.09;60.09;100506.28;6310708;28;20059;-71
2022/09/04 11:39:03;;;;;;;1.48;1.02;;;;;;;23.22;59.20;100498.63;6321385;28;20059;-72
2022/09/04 11:42:24;;;;;;;0.77;0.77;;;;;;;23.40;60.48;100509.13;6320107;28;20043;-72
2022/09/04 11:45:49;;;;;;;1.70;1.30;;;;;;;23.48;62.83;100500.31;6310464;28;20505;-72
2022/09/04 11:49:06;;;;;;;1.23;1.13;;;;;;;23.38;60.39;100504.97;6313149;28;20051;-72
2022/09/04 11:52:33;;;;;;;0.95;0.88;;;;;;;23.23;58.91;100502.97;6301453;28;20036;-73
2022/09/04 11:56:04;;;;;;;2.33;1.25;;;;;;;23.48;60.06;100493.16;6286541;28;20052;-72
2022/09/04 11:59:23;;;;;;;1.80;1.02;;;;;;;23.76;59.45;100506.09;6278003;28;20109;-72
2022/09/04 12:02:47;;;;;;;1.20;1.10;;;;;;;23.86;59.69;100506.78;6318835;28;20093;-72
2022/09/04 12:05:53;;;;;;;;;;;;;;;24.01;59.62;100508.75;6337053;28;20048;-72
2022/09/04 12:08:57;;;;;;;1.60;1.10;;;;;;;23.57;59.11;100496.63;6319465;28;20344;-71
2022/09/04 12:12:10;;;;;;;1.20;1.10;;;;;;;24.05;59.59;100497.59;6322576;28;20055;-73
2022/09/04 12:15:21;;;;;;;1.25;1.10;;;;;;;24.26;59.18;100490.88;6294376;28;20040;-72
2022/09/04 12:18:36;;;;;;;3.13;1.52;;;;;;;24.06;60.30;100493.09;6301306;28;20492;-75
2022/09/04 12:22:07;;;;;;;1.13;1.02;;;;;;;23.90;61.55;100497.44;6294007;28;20049;-74
2022/09/04 12:25:33;;;;;;;1.20;1.10;;;;;;;24.10;60.55;100487.25;6294161;28;20128;-74
2022/09/04 12:28:52;;;;;;;1.73;1.08;;;;;;;23.88;61.97;100482.66;6294042;28;20036;-74
2022/09/04 12:32:13;;;;;;;1.45;1.20;;;;;;;24.02;60.06;100483.78;6295302;28;20032;-74
2022/09/04 12:35:59;;;;;;;1.10;1.00;;;;;;;23.98;61.18;100485.94;6295287;28;20090;-74
2022/09/04 12:39:28;;;;;;;1.98;1.35;;;;;;;24.08;60.43;100483.94;6294538;28;20056;-74
2022/09/04 12:43:08;;;;;;;1.70;1.30;;;;;;;23.96;63.68;100482.63;6293772;28;20573;-74
2022/09/04 12:46:22;;;;;;;1.52;1.42;;;;;;;24.06;63.13;100483.25;6273973;28;20135;-74
2022/09/04 12:49:58;;;;;;;1.38;1.20;;;;;;;23.84;60.53;100489.31;6293929;28;20454;-74
2022/09/04 12:52:59;;;;;;;2.38;1.38;;;;;;;23.77;61.98;100483.84;6327526;28;20063;-74
2022/09/04 12:56:25;;;;;;;1.45;1.35;;;;;;;24.10;62.07;100483.75;6294969;28;20048;-74
2022/09/04 12:59:46;;;;;;;2.55;1.60;;;;;;;24.15;63.05;100476.06;6293497;28;20584;-74
2022/09/04 13:03:10;;;;;;;1.65;1.42;;;;;;;24.48;62.82;100482.13;6327302;28;20052;-74
2022/09/04 13:06:46;;;;;;;1.67;1.20;;;;;;;24.59;59.88;100485.44;6277281;28;20049;-74
2022/09/04 13:10:09;;;;;;;1.50;1.35;;;;;;;24.49;60.83;100475.81;6307299;28;20469;-74
2022/09/04 13:13:29;;;;;;;1.98;1.40;;;;;;;24.68;59.42;100481.72;6293474;28;20474;-74
2022/09/04 13:16:38;;;;;;;2.92;1.50;;;;;;;24.73;59.88;100477.50;6310521;28;20044;-74
2022/09/04 13:19:53;;;;;;;4.00;1.83;;;;;;;24.24;57.65;100469.72;6294674;28;20056;-74
2022/09/04 13:23:09;;;;;;;1.90;1.27;;;;;;;24.62;58.36;100482.41;6293535;28;20041;-74
2022/09/04 13:26:28;;;;;;;1.33;1.23;;;;;;;24.67;57.72;100475.53;6310267;28;20071;-74
2022/09/04 13:29:40;;;;;;;2.08;1.30;;;;;;;24.94;57.10;100462.72;6293282;28;20040;-74
2022/09/04 13:33:10;;;;;;;1.80;1.38;;;;;;;25.27;57.90;100475.84;6293416;28;20040;-74
2022/09/04 13:36:17;;;;;;;2.28;1.15;;;;;;;25.21;56.55;100474.72;6293240;28;20045;-74
2022/09/04 13:39:50;;;;;;;2.47;1.50;;;;;;;25.31;54.75;100472.63;6293293;28;20051;-74
2022/09/04 13:43:09;;;;;;;2.40;1.55;;;;;;;25.36;56.71;100473.94;6326796;28;20432;-75
2022/09/04 13:46:17;;;;;;;1.35;1.25;;;;;;;25.20;57.67;100474.84;6293198;28;20413;-74
2022/09/04 13:49:38;;;;;;;2.08;1.20;;;;;;;24.98;55.19;100460.50;6309947;28;20048;-74
2022/09/04 13:52:58;;;;;;;2.38;1.15;;;;;;;24.42;59.51;100460.63;6298018;28;20037;-74
2022/09/04 13:56:08;;;;;;;1.25;1.10;;;;;;;24.26;60.19;100465.03;6298864;28;20496;-74
2022/09/04 13:59:15;;;;;;;1.75;1.38;;;;;;;24.63;59.27;100466.22;6280809;28;20052;-74
2022/09/04 14:02:24;;;;;;;1.73;1.20;;;;;;;24.70;57.37;100455.69;6297570;28;20484;-74
2022/09/04 14:05:30;;;;;;;1.30;1.10;;;;;;;24.41;59.56;100462.47;6280688;28;20135;-74
2022/09/04 14:08:33;;;;;;;1.48;1.20;;;;;;;24.03;58.22;100458.78;6331200;28;20575;-74
2022/09/04 14:11:49;;;;;;;1.50;1.30;;;;;;;24.00;59.13;100461.81;6313329;28;20127;-74
2022/09/04 14:15:20;;;;;;;1.40;1.20;;;;;;;23.93;61.98;100456.34;6319888;28;20036;-73
2022/09/04 14:18:40;;;;;;;2.25;1.10;;;;;;;24.05;59.20;100454.97;6290548;28;20193;-74
2022/09/04 14:22:01;;;;;;;1.73;1.20;;;;;;;24.09;62.74;100458.94;6332040;28;20049;-74
2022/09/04 14:25:17;;;;;;;1.33;0.82;;;;;;;24.14;58.93;100458.44;6298375;28;20098;-74
2022/09/04 14:28:36;;;;;;;0.82;0.82;;;;;;;24.21;59.79;100453.22;6312883;28;20048;-74
2022/09/04 14:31:51;;;;;;;1.90;1.33;;;;;;;24.05;61.11;100452.28;6324452;28;20047;-74
2022/09/04 14:35:07;;;;;;;1.85;1.10;;;;;;;23.97;60.33;100446.13;6306208;28;20054;-74
2022/09/04 14:38:26;;;;;;;1.02;0.98;;;;;;;23.83;62.33;100445.84;6322670;28;20125;-74
2022/09/04 14:42:05;;;;;;;1.17;1.08;;;;;;;23.69;59.81;100455.34;6306158;28;20056;-74
2022/09/04 14:45:32;;;;;;;1.42;1.00;;;;;;;23.36;58.23;100459.88;6272842;28;20067;-74
2022/09/04 14:48:40;;;;;;;0.88;0.77;;;;;;;23.32;60.22;100462.03;6322647;28;20044;-74
2022/09/04 14:51:45;;;;;;;1.10;1.00;;;;;;;23.34;59.20;100456.53;6323797;28;20096;-74
2022/09/04 14:54:54;;;;;;;0.70;0.70;;;;;;;23.18;59.43;100457.38;6318470;28;20060;-74
2022/09/04 14:58:16;;;;;;;1.50;1.30;;;;;;;23.23;63.21;100457.72;6302497;28;20036;-74
2022/09/04 15:01:23;;;;;;;0.98;0.88;;;;;;;23.37;64.74;100458.03;6305439;28;20446;-73
2022/09/04 15:04:32;;;;;;;1.30;1.00;;;;;;;23.36;66.24;100457.22;6321760;28;20089;-74
2022/09/04 15:07:42;;;;;;;1.15;0.98;;;;;;;23.43;64.42;100452.03;6322442;28;20040;-74
2022/09/04 15:10:52;;;;;;;1.23;1.00;;;;;;;23.45;62.60;100450.91;6321123;28;20040;-74
2022/09/04 15:14:03;;;;;;;1.20;1.08;;;;;;;23.42;59.68;100447.72;6320876;28;20047;-74
2022/09/04 15:17:23;;;;;;;1.52;0.98;;;;;;;23.37;59.14;100452.72;6320816;28;20048;-74
2022/09/04 15:20:28;;;;;;;1.48;1.17;;;;;;;23.33;63.01;100457.56;6321889;28;20051;-74
2022/09/04 15:23:55;;;;;;;1.45;1.20;;;;;;;23.25;64.52;100460.22;6321851;28;20066;-74
2022/09/04 15:27:08;;;;;;;1.00;0.90;;;;;;;23.18;67.35;100464.53;6309620;28;20079;-74